< < Back
Terminal Aerodrome Forecast


Current Version              Previous Versions:   1  2  3  4  5  6  7  8  9  

Terminal Aerodrome Forecast

746
FTUS42 KFFC 171100
TAFAHN
TAF
KAHN 171127Z 1712/1812 32004KT P6SM SCT040
     FM171600 31008KT P6SM SCT045
     FM180100 30003KT P6SM SKC=



Latest METAR

248
SAUS70 KWBC 171100
MTRAHN
METAR KAHN 171051Z 31003KT 10SM CLR 20/18 A2996 RMK AO2 SLP140
T02000183


USA.gov is the U.S. government's official web portal to all federal, state and local government web resources and services.